Time;durP1;ratioP1;P1;durP2;ratioP2;P2;SDS_P1;SDS_P2;PMS_P1;PMS_P2;Temp;Humidity;BMP_temperature;BMP_pressure;BME280_temperature;BME280_humidity;BME280_pressure;Samples;Min_cycle;Max_cycle;Signal;HPM_P1;HPM_P2
2022/12/27 00:02:20;;;;;;;;;;;;;;;2.23;100.00;102119.28;4932014;29;20013;-65
2022/12/27 00:04:46;;;;;;;;;;;;;;;2.20;100.00;102125.03;4933628;29;20317;-64
2022/12/27 00:07:11;;;;;;;;;;;;;;;2.20;100.00;102122.31;4931830;29;19998;-66
2022/12/27 00:09:36;;;;;;;;;;;;;;;2.25;100.00;102128.16;4932709;29;19919;-66
2022/12/27 00:12:01;;;;;;;;;;;;;;;2.25;100.00;102130.88;4930332;29;19921;-66
2022/12/27 00:14:27;;;;;;;;;;;;;;;2.29;100.00;102130.44;4933191;29;19941;-66
2022/12/27 00:16:52;;;;;;;;;;;;;;;2.26;100.00;102125.28;4931932;29;19919;-65
2022/12/27 00:19:17;;;;;;;;;;;;;;;2.32;100.00;102135.56;4933292;29;19926;-66
2022/12/27 00:21:42;;;;;;;;;;;;;;;2.25;100.00;102131.72;4931134;29;20021;-66
2022/12/27 00:24:09;;;;;;;;;;;;;;;2.23;100.00;102139.16;4932884;29;20337;-64
2022/12/27 00:26:34;;;;;;;;;;;;;;;2.30;100.00;102137.56;4933022;29;19915;-65
2022/12/27 00:28:59;;;;;;;;;;;;;;;2.27;100.00;102137.00;4932723;29;19970;-67
2022/12/27 00:31:26;;;;;;;;;;;;;;;2.28;100.00;102145.00;4933392;29;20709;-67
2022/12/27 00:33:53;;;;;;;;;;;;;;;2.37;100.00;102151.38;4931664;29;20329;-67
2022/12/27 00:36:20;;;;;;;;;;;;;;;2.30;100.00;102147.56;4931313;29;19974;-68
2022/12/27 00:38:45;;;;;;;;;;;;;;;2.25;100.00;102147.13;4931622;29;19914;-68
2022/12/27 00:41:11;;;;;;;;;;;;;;;2.23;100.00;102135.56;4932137;29;20017;-68
2022/12/27 00:43:36;;;;;;;;;;;;;;;2.23;100.00;102143.69;4932690;29;19934;-68
2022/12/27 00:46:01;;;;;;;;;;;;;;;2.37;100.00;102142.41;4932143;29;19915;-68
2022/12/27 00:48:27;;;;;;;;;;;;;;;2.43;100.00;102145.38;4931745;29;19977;-68
2022/12/27 00:50:59;;;;;;;;;;;;;;;2.32;100.00;102156.38;4931157;29;20389;-69
2022/12/27 00:53:25;;;;;;;;;;;;;;;2.48;100.00;102155.78;4931662;29;19919;-69
2022/12/27 00:55:50;;;;;;;;;;;;;;;2.33;100.00;102152.66;4932770;29;19915;-68
2022/12/27 00:58:15;;;;;;;;;;;;;;;2.30;100.00;102156.53;4932061;29;19915;-70
2022/12/27 01:00:41;;;;;;;;;;;;;;;2.32;100.00;102159.09;4925886;29;19919;-68
2022/12/27 01:03:06;;;;;;;;;;;;;;;2.34;100.00;102166.09;4930048;29;20330;-65
2022/12/27 01:05:35;;;;;;;;;;;;;;;2.35;100.00;102172.38;4931331;29;20649;-65
2022/12/27 01:08:00;;;;;;;;;;;;;;;2.33;100.00;102166.22;4914236;29;19922;-67
2022/12/27 01:10:25;;;;;;;;;;;;;;;2.30;100.00;102174.66;4928650;29;19917;-67
2022/12/27 01:12:50;;;;;;;;;;;;;;;2.32;100.00;102178.06;4931295;29;20333;-66
2022/12/27 01:15:15;;;;;;;;;;;;;;;2.29;100.00;102175.66;4931216;29;19970;-68
2022/12/27 01:17:41;;;;;;;;;;;;;;;2.30;100.00;102177.38;4931063;29;19973;-67
2022/12/27 01:20:06;;;;;;;;;;;;;;;2.34;100.00;102162.53;4931124;29;20374;-67
2022/12/27 01:22:31;;;;;;;;;;;;;;;2.29;100.00;102173.81;4925569;29;19945;-67
2022/12/27 01:24:56;;;;;;;;;;;;;;;2.30;100.00;102180.09;4930514;29;19929;-65
2022/12/27 01:27:22;;;;;;;;;;;;;;;2.28;100.00;102179.34;4931346;29;19914;-67
2022/12/27 01:29:47;;;;;;;;;;;;;;;2.36;100.00;102179.50;4930974;29;19918;-67
2022/12/27 01:32:12;;;;;;;;;;;;;;;2.38;100.00;102187.47;4929811;29;19969;-67
2022/12/27 01:34:37;;;;;;;;;;;;;;;2.43;100.00;102194.19;4930686;29;19943;-65
2022/12/27 01:37:03;;;;;;;;;;;;;;;2.38;100.00;102193.75;4930503;29;19918;-66
2022/12/27 01:39:28;;;;;;;;;;;;;;;2.39;100.00;102195.50;4931038;29;19921;-66
2022/12/27 01:44:42;;;;;;;;;;;;;;;2.38;100.00;102206.47;4916232;29;19922;-67
2022/12/27 01:47:25;;;;;;;;;;;;;;;2.59;100.00;102201.75;4918074;29;19918;-64
2022/12/27 01:50:10;;;;;;;;;;;;;;;2.41;100.00;102208.91;4929603;29;19921;-64
2022/12/27 01:52:38;;;;;;;;;;;;;;;2.39;100.00;102202.78;4929995;29;19914;-65
2022/12/27 01:55:07;;;;;;;;;;;;;;;2.38;100.00;102220.88;4926794;29;20289;-65
2022/12/27 01:57:33;;;;;;;;;;;;;;;2.46;100.00;102215.59;4918933;29;20002;-65
2022/12/27 01:59:58;;;;;;;;;;;;;;;2.54;100.00;102207.59;4929598;29;19949;-66
2022/12/27 02:02:23;;;;;;;;;;;;;;;2.43;100.00;102223.16;4930562;29;19927;-66
2022/12/27 02:04:49;;;;;;;;;;;;;;;2.37;100.00;102218.31;4930654;29;20027;-66
2022/12/27 02:07:14;;;;;;;;;;;;;;;2.52;100.00;102216.88;4928817;29;20362;-65
2022/12/27 02:09:52;;;;;;;;;;;;;;;2.41;100.00;102226.03;4928940;29;19915;-65
2022/12/27 02:12:18;;;;;;;;;;;;;;;2.40;100.00;102229.72;4930233;29;20526;-66
2022/12/27 02:14:45;;;;;;;;;;;;;;;2.45;100.00;102222.03;4929670;29;19915;-66
2022/12/27 02:17:30;;;;;;;;;;;;;;;2.39;100.00;102228.03;4930475;29;19914;-66
2022/12/27 02:19:55;;;;;;;;;;;;;;;2.40;100.00;102228.88;4928277;29;19919;-66
2022/12/27 02:24:01;;;;;;;;;;;;;;;2.38;100.00;102220.00;4929021;29;20293;-65
2022/12/27 02:25:40;;;;;;;;;;;;;;;2.46;100.00;102229.16;4929735;29;20484;-67
2022/12/27 02:28:13;;;;;;;;;;;;;;;2.45;100.00;102230.16;4928570;29;20550;-67
2022/12/27 02:30:38;;;;;;;;;;;;;;;2.47;100.00;102232.72;4929773;29;19919;-66
2022/12/27 02:33:14;;;;;;;;;;;;;;;2.50;100.00;102229.72;4930964;29;19970;-66
2022/12/27 02:35:43;;;;;;;;;;;;;;;2.42;100.00;102222.31;4930221;29;20360;-66
2022/12/27 02:38:09;;;;;;;;;;;;;;;2.41;100.00;102225.16;4929277;29;19915;-64
2022/12/27 02:54:52;;;;;;;;;;;;;;;2.32;100.00;102246.69;4929941;29;19926;-66
2022/12/27 02:57:20;;;;;;;;;;;;;;;2.37;100.00;102248.13;4929806;29;19949;-64
2022/12/27 03:05:42;;;;;;;;;;;;;;;2.26;100.00;102243.72;4930579;29;20727;-66
2022/12/27 03:08:08;;;;;;;;;;;;;;;2.26;100.00;102236.44;4928884;29;19919;-66
2022/12/27 03:16:27;;;;;;;;;;;;;;;2.45;100.00;102227.44;4929374;29;20131;-66
2022/12/27 03:18:59;;;;;;;;;;;;;;;2.44;100.00;102242.00;4929669;29;19921;-66
2022/12/27 03:25:26;;;;;;;;;;;;;;;2.53;100.00;102237.56;4919681;29;20453;-65
2022/12/27 03:27:16;;;;;;;;;;;;;;;2.64;100.00;102242.84;4933960;29;19921;-66
2022/12/27 03:35:20;;;;;;;;;;;;;;;2.68;100.00;102256.97;4932611;29;19928;-67
2022/12/27 03:38:04;;;;;;;;;;;;;;;2.54;100.00;102259.13;4932353;29;19953;-66
2022/12/27 03:40:38;;;;;;;;;;;;;;;2.55;100.00;102260.00;4933025;29;20376;-64
2022/12/27 03:43:11;;;;;;;;;;;;;;;2.53;100.00;102279.09;4933121;29;20001;-66
2022/12/27 03:48:55;;;;;;;;;;;;;;;2.74;100.00;102278.13;4933808;29;19926;-65
2022/12/27 03:51:22;;;;;;;;;;;;;;;2.94;100.00;102249.06;4925765;29;19926;-66
2022/12/27 03:53:49;;;;;;;;;;;;;;;2.95;100.00;102251.66;4927703;29;19923;-63
2022/12/27 03:56:15;;;;;;;;;;;;;;;2.95;100.00;102257.06;4933343;29;19962;-66
2022/12/27 03:58:40;;;;;;;;;;;;;;;2.96;100.00;102258.78;4932798;29;20000;-66
2022/12/27 04:01:05;;;;;;;;;;;;;;;2.97;100.00;102265.91;4932960;29;20691;-66
2022/12/27 04:03:31;;;;;;;;;;;;;;;2.89;100.00;102268.53;4932519;29;19918;-66
2022/12/27 04:05:56;;;;;;;;;;;;;;;3.13;100.00;102277.00;4931313;29;20421;-64
2022/12/27 04:35:40;;;;;;;;;;;;;;;2.72;100.00;102269.25;4930803;29;19926;-66
2022/12/27 04:38:05;;;;;;;;;;;;;;;2.75;100.00;102271.69;4931655;29;20355;-65
2022/12/27 04:56:59;;;;;;;;;;;;;;;2.81;100.00;102284.66;4931551;29;19961;-64
2022/12/27 05:02:08;;;;;;;;;;;;;;;2.99;100.00;102292.91;4931157;29;20297;-66
2022/12/27 05:04:35;;;;;;;;;;;;;;;2.99;100.00;102296.50;4931490;29;20013;-66
2022/12/27 05:13:58;;;;;;;;;;;;;;;2.95;100.00;102303.22;4929683;29;19966;-66
2022/12/27 05:15:14;;;;;;;;;;;;;;;3.07;100.00;102295.75;4931737;29;19922;-67
2022/12/27 05:17:39;;;;;;;;;;;;;;;2.88;100.00;102295.78;4931609;29;19914;-65
2022/12/27 05:20:04;;;;;;;;;;;;;;;2.88;100.00;102288.50;4931518;29;19919;-67
2022/12/27 05:27:57;;;;;;;;;;;;;;;2.76;100.00;102297.81;4931099;29;20338;-68
2022/12/27 05:30:23;;;;;;;;;;;;;;;2.80;100.00;102302.78;4931549;29;19997;-68
2022/12/27 05:32:48;;;;;;;;;;;;;;;2.77;100.00;102304.94;4931205;29;19974;-67
2022/12/27 05:35:13;;;;;;;;;;;;;;;2.81;100.00;102306.38;4930048;29;19926;-67
2022/12/27 05:37:38;;;;;;;;;;;;;;;2.78;100.00;102317.50;4923875;29;19934;-68
2022/12/27 05:40:04;;;;;;;;;;;;;;;2.94;100.00;102319.63;4929182;29;19943;-67
2022/12/27 05:42:30;;;;;;;;;;;;;;;2.78;100.00;102329.19;4929563;29;19961;-67
2022/12/27 05:44:55;;;;;;;;;;;;;;;2.72;100.00;102342.50;4929426;29;19965;-65
2022/12/27 05:47:20;;;;;;;;;;;;;;;2.75;100.00;102340.34;4929715;29;20225;-68
2022/12/27 05:49:45;;;;;;;;;;;;;;;2.71;100.00;102346.22;4928507;29;19937;-68
2022/12/27 05:52:10;;;;;;;;;;;;;;;2.75;100.00;102348.50;4928812;29;20025;-67
2022/12/27 05:54:35;;;;;;;;;;;;;;;2.79;100.00;102336.38;4930040;29;19914;-67
2022/12/27 05:57:01;;;;;;;;;;;;;;;2.88;100.00;102345.47;4929568;29;19918;-66
2022/12/27 05:59:26;;;;;;;;;;;;;;;2.96;100.00;102345.63;4929530;29;20280;-67
2022/12/27 06:01:51;;;;;;;;;;;;;;;2.98;100.00;102349.03;4929365;29;19957;-69
2022/12/27 06:04:16;;;;;;;;;;;;;;;3.03;100.00;102352.19;4928097;29;20420;-68
2022/12/27 06:06:41;;;;;;;;;;;;;;;3.05;100.00;102341.19;4928027;29;19946;-69
2022/12/27 06:09:06;;;;;;;;;;;;;;;3.24;100.00;102333.00;4927931;29;19926;-66
2022/12/27 06:11:32;;;;;;;;;;;;;;;3.32;100.00;102340.41;4929533;29;19919;-68
2022/12/27 06:13:57;;;;;;;;;;;;;;;3.40;100.00;102335.13;4929587;29;19929;-68
2022/12/27 06:16:22;;;;;;;;;;;;;;;3.62;100.00;102332.03;4929272;29;20282;-68
2022/12/27 06:18:47;;;;;;;;;;;;;;;3.71;100.00;102340.31;4929962;29;19922;-69
2022/12/27 06:21:14;;;;;;;;;;;;;;;3.51;100.00;102344.97;4928136;29;19918;-69
2022/12/27 06:23:41;;;;;;;;;;;;;;;3.41;100.00;102350.41;4929075;29;19915;-69
2022/12/27 06:26:07;;;;;;;;;;;;;;;3.48;100.00;102356.97;4930996;29;19919;-67
2022/12/27 06:28:33;;;;;;;;;;;;;;;3.37;100.00;102360.69;4930968;29;19919;-67
2022/12/27 06:30:58;;;;;;;;;;;;;;;3.21;100.00;102367.75;4930814;29;20585;-68
2022/12/27 06:33:24;;;;;;;;;;;;;;;3.08;100.00;102368.88;4930261;29;19918;-68
2022/12/27 06:35:49;;;;;;;;;;;;;;;3.01;100.00;102356.06;4928923;29;19925;-67
2022/12/27 06:38:14;;;;;;;;;;;;;;;3.04;100.00;102358.47;4929500;29;19937;-67
2022/12/27 06:40:40;;;;;;;;;;;;;;;2.85;100.00;102370.19;4929752;29;19970;-66
2022/12/27 06:43:05;;;;;;;;;;;;;;;2.93;100.00;102361.34;4929834;29;19926;-67
2022/12/27 06:45:30;;;;;;;;;;;;;;;2.81;100.00;102364.19;4929444;29;19919;-68
2022/12/27 06:47:55;;;;;;;;;;;;;;;2.70;100.00;102371.63;4931920;29;19911;-69
2022/12/27 06:50:20;;;;;;;;;;;;;;;2.71;100.00;102367.91;4928855;29;20357;-68
2022/12/27 06:52:46;;;;;;;;;;;;;;;2.59;100.00;102375.34;4929637;29;19917;-67
2022/12/27 06:55:11;;;;;;;;;;;;;;;2.53;100.00;102382.16;4929649;29;19961;-68
2022/12/27 06:57:36;;;;;;;;;;;;;;;2.55;100.00;102382.88;4930375;29;19915;-68
2022/12/27 07:00:02;;;;;;;;;;;;;;;2.51;100.00;102373.31;4928466;29;19921;-67
2022/12/27 07:02:27;;;;;;;;;;;;;;;2.43;100.00;102378.56;4930014;29;19923;-68
2022/12/27 07:04:52;;;;;;;;;;;;;;;2.44;100.00;102372.16;4928458;29;19957;-69
2022/12/27 07:07:17;;;;;;;;;;;;;;;2.39;100.00;102385.28;4927588;29;19915;-65
2022/12/27 07:09:42;;;;;;;;;;;;;;;2.31;100.00;102380.53;4928963;29;19941;-69
2022/12/27 07:12:08;;;;;;;;;;;;;;;2.29;100.00;102381.69;4929974;29;19915;-68
2022/12/27 07:14:33;;;;;;;;;;;;;;;2.26;100.00;102390.09;4922281;29;19950;-69
2022/12/27 07:16:58;;;;;;;;;;;;;;;2.19;100.00;102384.38;4922711;29;19919;-68
2022/12/27 07:19:23;;;;;;;;;;;;;;;2.18;100.00;102392.63;4929629;29;19915;-66
2022/12/27 07:21:48;;;;;;;;;;;;;;;2.15;100.00;102393.78;4927964;29;20009;-68
2022/12/27 07:24:14;;;;;;;;;;;;;;;2.16;100.00;102392.78;4928579;29;19919;-68
2022/12/27 07:26:39;;;;;;;;;;;;;;;2.15;100.00;102390.22;4929669;29;19914;-67
2022/12/27 07:29:04;;;;;;;;;;;;;;;2.18;100.00;102392.63;4930504;29;19926;-68
2022/12/27 07:31:30;;;;;;;;;;;;;;;2.12;100.00;102393.19;4926905;29;20021;-68
2022/12/27 07:33:56;;;;;;;;;;;;;;;2.08;100.00;102406.16;4930101;29;19914;-68
2022/12/27 07:36:23;;;;;;;;;;;;;;;2.20;100.00;102406.91;4927893;29;20374;-68
2022/12/27 07:38:48;;;;;;;;;;;;;;;2.11;100.00;102405.88;4929131;29;19919;-67
2022/12/27 07:41:14;;;;;;;;;;;;;;;2.03;100.00;102412.00;4930198;29;19962;-67
2022/12/27 07:43:39;;;;;;;;;;;;;;;2.07;100.00;102415.28;4928154;29;20020;-68
2022/12/27 07:46:05;;;;;;;;;;;;;;;2.03;100.00;102412.00;4928312;29;20286;-68
2022/12/27 07:48:31;;;;;;;;;;;;;;;2.01;100.00;102416.69;4928545;29;19961;-68
2022/12/27 07:50:56;;;;;;;;;;;;;;;2.03;100.00;102417.41;4927557;29;21170;-68
2022/12/27 07:53:21;;;;;;;;;;;;;;;2.00;100.00;102419.53;4928025;29;20409;-68
2022/12/27 07:55:47;;;;;;;;;;;;;;;2.00;100.00;102416.81;4927207;29;20361;-67
2022/12/27 07:58:13;;;;;;;;;;;;;;;1.99;100.00;102421.38;4928013;29;19941;-68
2022/12/27 08:00:38;;;;;;;;;;;;;;;2.01;100.00;102418.53;4927277;29;19922;-68
2022/12/27 08:03:03;;;;;;;;;;;;;;;2.03;100.00;102425.56;4927347;29;19926;-68
2022/12/27 08:05:29;;;;;;;;;;;;;;;2.11;100.00;102418.56;4925094;29;19965;-68
2022/12/27 08:07:54;;;;;;;;;;;;;;;2.16;100.00;102421.72;4920811;29;20013;-68
2022/12/27 08:10:19;;;;;;;;;;;;;;;2.20;100.00;102428.59;4928895;29;19926;-69
2022/12/27 08:12:45;;;;;;;;;;;;;;;2.29;100.00;102433.22;4914804;29;19918;-68
2022/12/27 08:15:10;;;;;;;;;;;;;;;2.33;100.00;102434.63;4931127;29;20337;-67
2022/12/27 08:17:35;;;;;;;;;;;;;;;2.49;100.00;102439.53;4932082;29;20063;-67
2022/12/27 08:20:01;;;;;;;;;;;;;;;2.53;100.00;102440.97;4922304;29;19919;-68
2022/12/27 08:22:27;;;;;;;;;;;;;;;2.72;100.00;102441.00;4912462;29;20556;-68
2022/12/27 08:24:52;;;;;;;;;;;;;;;2.99;100.00;102440.34;4912329;29;19915;-66
2022/12/27 08:27:21;;;;;;;;;;;;;;;3.23;100.00;102445.31;4925076;29;20031;-69
2022/12/27 08:29:46;;;;;;;;;;;;;;;3.26;100.00;102446.91;4931673;29;19918;-69
2022/12/27 08:32:11;;;;;;;;;;;;;;;3.25;100.00;102445.19;4931691;29;19970;-68
2022/12/27 08:34:36;;;;;;;;;;;;;;;3.34;100.00;102458.75;4932429;29;19969;-67
2022/12/27 08:37:01;;;;;;;;;;;;;;;3.49;100.00;102440.16;4928474;29;20293;-69
2022/12/27 08:39:28;;;;;;;;;;;;;;;3.50;100.00;102452.75;4931313;29;19930;-68
2022/12/27 08:41:54;;;;;;;;;;;;;;;3.56;100.00;102441.31;4931732;29;19915;-68
2022/12/27 08:44:19;;;;;;;;;;;;;;;3.75;100.00;102442.25;4931465;29;19970;-68
2022/12/27 08:46:44;;;;;;;;;;;;;;;3.77;100.00;102441.09;4930901;29;20023;-69
2022/12/27 08:49:09;;;;;;;;;;;;;;;4.02;100.00;102439.59;4930014;29;19954;-68
2022/12/27 08:51:34;;;;;;;;;;;;;;;4.43;100.00;102442.84;4931137;29;19919;-66
2022/12/27 08:53:59;;;;;;;;;;;;;;;4.64;100.00;102435.28;4932165;29;20013;-70
2022/12/27 08:56:25;;;;;;;;;;;;;;;4.59;100.00;102431.31;4932003;29;19967;-67
2022/12/27 08:58:50;;;;;;;;;;;;;;;4.51;100.00;102431.19;4930351;29;19987;-67
2022/12/27 09:01:15;;;;;;;;;;;;;;;4.44;100.00;102430.97;4930434;29;19997;-67
2022/12/27 09:03:41;;;;;;;;;;;;;;;4.33;100.00;102436.59;4931429;29;20488;-67
2022/12/27 09:06:11;;;;;;;;;;;;;;;4.33;100.00;102442.03;4931390;29;19915;-67
2022/12/27 09:08:36;;;;;;;;;;;;;;;4.38;100.00;102418.81;4929964;29;19946;-67
2022/12/27 09:11:12;;;;;;;;;;;;;;;4.46;100.00;102428.06;4931355;29;19918;-68
2022/12/27 09:13:38;;;;;;;;;;;;;;;4.75;100.00;102423.31;4931381;29;19918;-68
2022/12/27 09:16:04;;;;;;;;;;;;;;;4.82;100.00;102432.59;4931566;29;19950;-68
2022/12/27 09:18:29;;;;;;;;;;;;;;;4.95;100.00;102437.63;4931419;29;19966;-66
2022/12/27 09:20:54;;;;;;;;;;;;;;;4.98;100.00;102431.91;4930313;29;19918;-67
2022/12/27 09:23:19;;;;;;;;;;;;;;;5.25;100.00;102432.81;4930857;29;19911;-66
2022/12/27 09:25:45;;;;;;;;;;;;;;;5.35;100.00;102436.31;4930823;29;20327;-68
2022/12/27 09:28:10;;;;;;;;;;;;;;;5.42;100.00;102437.38;4930956;29;19918;-66
2022/12/27 09:30:35;;;;;;;;;;;;;;;5.53;100.00;102441.75;4931768;29;19954;-66
2022/12/27 09:33:00;;;;;;;;;;;;;;;5.54;100.00;102444.31;4930615;29;19914;-69
2022/12/27 09:35:25;;;;;;;;;;;;;;;5.54;100.00;102441.59;4930835;29;20310;-68
2022/12/27 09:37:51;;;;;;;;;;;;;;;5.45;100.00;102442.53;4930204;29;20323;-69
2022/12/27 09:40:18;;;;;;;;;;;;;;;5.38;100.00;102449.63;4930449;29;19949;-70
2022/12/27 09:43:04;;;;;;;;;;;;;;;5.37;100.00;102454.22;4921718;29;19923;-70
2022/12/27 09:45:32;;;;;;;;;;;;;;;5.37;100.00;102453.34;4921110;29;19925;-69
2022/12/27 09:48:01;;;;;;;;;;;;;;;5.31;100.00;102454.84;4924016;29;19919;-67
2022/12/27 09:50:31;;;;;;;;;;;;;;;5.36;100.00;102454.38;4929555;29;20005;-69
2022/12/27 09:53:04;;;;;;;;;;;;;;;5.49;100.00;102443.94;4928191;29;19917;-69
2022/12/27 09:55:47;;;;;;;;;;;;;;;5.71;100.00;102442.53;4926893;29;20365;-68
2022/12/27 09:58:15;;;;;;;;;;;;;;;5.94;100.00;102443.78;4929153;29;20259;-67
2022/12/27 10:00:40;;;;;;;;;;;;;;;6.34;100.00;102449.63;4923136;29;19925;-67
2022/12/27 10:03:05;;;;;;;;;;;;;;;6.81;100.00;102449.94;4927546;29;19919;-67
2022/12/27 10:05:32;;;;;;;;;;;;;;;7.35;100.00;102447.66;4928125;29;19969;-67
2022/12/27 10:08:16;;;;;;;;;;;;;;;8.11;97.87;102448.22;4929129;29;19919;-69
2022/12/27 10:11:34;;;;;;;;;;;;;;;8.76;94.73;102454.31;4929764;29;19911;-69
2022/12/27 10:13:58;;;;;;;;;;;;;;;9.51;91.67;102453.63;4922343;29;20385;-69
2022/12/27 10:16:43;;;;;;;;;;;;;;;9.90;85.54;102449.84;4929805;29;20001;-70
2022/12/27 10:19:17;;;;;;;;;;;;;;;10.36;86.11;102453.31;4928797;29;19919;-70
2022/12/27 10:22:09;;;;;;;;;;;;;;;10.88;86.68;102454.19;4921766;29;20313;-69
2022/12/27 10:24:38;;;;;;;;;;;;;;;11.58;82.71;102441.56;4930112;29;19914;-69
2022/12/27 10:27:10;;;;;;;;;;;;;;;12.12;79.45;102433.56;4926537;29;20013;-68
2022/12/27 10:29:35;;;;;;;;;;;;;;;12.21;75.43;102439.72;4928690;29;19969;-69
2022/12/27 10:32:01;;;;;;;;;;;;;;;12.49;77.37;102430.56;4929121;29;19919;-69
2022/12/27 10:34:26;;;;;;;;;;;;;;;12.81;75.33;102443.63;4925110;29;20530;-69
2022/12/27 10:36:52;;;;;;;;;;;;;;;13.17;77.42;102439.69;4925365;29;19926;-70
2022/12/27 10:39:25;;;;;;;;;;;;;;;13.57;71.14;102439.78;4929958;29;19925;-69
2022/12/27 10:42:09;;;;;;;;;;;;;;;13.80;72.16;102434.69;4928678;29;19919;-69
2022/12/27 10:44:34;;;;;;;;;;;;;;;14.01;68.73;102447.41;4926241;29;19923;-71
2022/12/27 10:47:00;;;;;;;;;;;;;;;13.91;68.13;102439.56;4928994;29;19974;-70
2022/12/27 10:49:26;;;;;;;;;;;;;;;13.97;68.16;102449.75;4928169;29;20287;-70
2022/12/27 10:51:54;;;;;;;;;;;;;;;14.00;66.76;102454.00;4928507;29;20281;-67
2022/12/27 10:54:22;;;;;;;;;;;;;;;14.39;67.05;102452.22;4927995;29;19937;-70
2022/12/27 10:56:47;;;;;;;;;;;;;;;14.09;69.74;102461.03;4912076;29;19953;-69
2022/12/27 10:59:15;;;;;;;;;;;;;;;13.29;72.16;102460.16;4929086;29;19914;-70
2022/12/27 11:01:41;;;;;;;;;;;;;;;12.08;72.20;102451.53;4918376;29;20005;-69
2022/12/27 11:04:17;;;;;;;;;;;;;;;10.79;75.53;102466.31;4929262;29;20017;-70
2022/12/27 11:06:43;;;;;;;;;;;;;;;9.67;81.21;102458.13;4925679;29;19914;-74
2022/12/27 11:09:23;;;;;;;;;;;;;;;8.81;85.35;102459.25;4929572;29;20068;-71
2022/12/27 11:11:48;;;;;;;;;;;;;;;8.07;88.08;102456.78;4929834;29;19918;-73
2022/12/27 11:14:18;;;;;;;;;;;;;;;7.66;88.91;102455.16;4925691;29;19926;-70
2022/12/27 11:16:43;;;;;;;;;;;;;;;7.46;92.24;102451.91;4916455;29;20491;-68
2022/12/27 11:19:19;;;;;;;;;;;;;;;7.22;93.56;102453.59;4922732;29;19946;-67
2022/12/27 11:21:44;;;;;;;;;;;;;;;7.01;93.89;102445.03;4927430;29;19997;-69
2022/12/27 11:24:12;;;;;;;;;;;;;;;6.96;93.54;102439.22;4929960;29;19998;-73
2022/12/27 11:26:48;;;;;;;;;;;;;;;7.03;95.57;102445.72;4929969;29;20031;-69
2022/12/27 11:29:15;;;;;;;;;;;;;;;6.93;94.66;102447.75;4930249;29;19954;-69
2022/12/27 11:31:46;;;;;;;;;;;;;;;6.92;96.06;102438.69;4930121;29;19996;-68
2022/12/27 11:34:15;;;;;;;;;;;;;;;6.93;96.14;102437.66;4924977;29;19984;-69
2022/12/27 11:36:42;;;;;;;;;;;;;;;6.98;96.29;102442.63;4928740;29;19965;-69
2022/12/27 11:39:27;;;;;;;;;;;;;;;6.91;96.47;102437.00;4930188;29;19970;-68
2022/12/27 11:41:53;;;;;;;;;;;;;;;6.78;96.23;102442.06;4930157;29;19984;-69
2022/12/27 11:44:27;;;;;;;;;;;;;;;6.75;97.61;102432.34;4934177;29;19915;-69
2022/12/27 11:46:57;;;;;;;;;;;;;;;6.76;97.58;102444.13;4933519;29;19921;-69
2022/12/27 11:49:26;;;;;;;;;;;;;;;6.76;98.09;102427.75;4931469;29;19919;-69
2022/12/27 11:52:01;;;;;;;;;;;;;;;6.78;98.09;102425.69;4932987;29;20013;-68
2022/12/27 11:54:45;;;;;;;;;;;;;;;6.82;98.63;102416.16;4934096;29;19919;-69
2022/12/27 11:57:13;;;;;;;;;;;;;;;6.76;98.64;102416.81;4930319;29;20457;-69
2022/12/27 11:59:44;;;;;;;;;;;;;;;6.58;97.92;102419.66;4931636;29;19961;-68
2022/12/27 12:02:15;;;;;;;;;;;;;;;6.52;99.17;102414.03;4933325;29;19919;-69
2022/12/27 12:04:43;;;;;;;;;;;;;;;6.46;99.95;102415.53;4930691;29;20341;-70
2022/12/27 12:07:26;;;;;;;;;;;;;;;6.37;99.44;102417.38;4930598;29;20313;-70
2022/12/27 12:10:10;;;;;;;;;;;;;;;6.40;100.00;102413.47;4930794;29;19918;-67
2022/12/27 12:12:41;;;;;;;;;;;;;;;6.34;100.00;102411.41;4932578;29;19914;-68
2022/12/27 12:15:18;;;;;;;;;;;;;;;6.33;100.00;102405.06;4928478;29;19969;-70
2022/12/27 12:17:49;;;;;;;;;;;;;;;6.34;100.00;102403.22;4926852;29;19919;-69
2022/12/27 12:20:26;;;;;;;;;;;;;;;6.30;100.00;102394.50;4932132;29;19915;-69
2022/12/27 12:23:11;;;;;;;;;;;;;;;6.30;100.00;102396.38;4932584;29;20009;-71
2022/12/27 12:25:51;;;;;;;;;;;;;;;6.26;100.00;102393.13;4934038;29;20036;-69
2022/12/27 12:28:35;;;;;;;;;;;;;;;6.32;100.00;102389.72;4933522;29;19918;-70
2022/12/27 12:31:03;;;;;;;;;;;;;;;6.32;100.00;102400.63;4932613;29;19915;-68
2022/12/27 12:33:49;;;;;;;;;;;;;;;6.52;100.00;102390.31;4914895;29;19923;-69
2022/12/27 12:36:20;;;;;;;;;;;;;;;7.29;98.27;102390.91;4913670;29;19915;-70
2022/12/27 12:38:57;;;;;;;;;;;;;;;8.15;96.25;102373.81;4913908;29;19998;-70
2022/12/27 12:41:36;;;;;;;;;;;;;;;8.40;94.09;102377.31;4923421;29;19957;-70
2022/12/27 12:44:24;;;;;;;;;;;;;;;8.16;91.87;102375.53;4933224;29;20374;-70
2022/12/27 12:46:55;;;;;;;;;;;;;;;8.42;90.76;102367.06;4932733;29;19915;-70
2022/12/27 12:49:39;;;;;;;;;;;;;;;8.41;92.03;102367.22;4931635;29;19925;-71
2022/12/27 12:52:27;;;;;;;;;;;;;;;8.91;88.73;102349.44;4927341;29;19919;-70
2022/12/27 12:55:11;;;;;;;;;;;;;;;9.38;85.87;102345.59;4931513;29;20381;-70
2022/12/27 12:57:54;;;;;;;;;;;;;;;9.91;85.64;102341.78;4932283;29;19919;-69
2022/12/27 13:00:35;;;;;;;;;;;;;;;10.72;81.40;102328.84;4932822;29;19940;-70
2022/12/27 13:03:39;;;;;;;;;;;;;;;10.45;81.24;102327.72;4930899;29;19918;-70
2022/12/27 13:06:13;;;;;;;;;;;;;;;9.70;84.28;102330.72;4873047;29;19915;-71
2022/12/27 13:08:51;;;;;;;;;;;;;;;9.19;86.30;102325.91;4871736;29;20386;-71
2022/12/27 13:11:34;;;;;;;;;;;;;;;8.72;87.47;102323.41;4897445;29;19963;-70
2022/12/27 13:14:02;;;;;;;;;;;;;;;8.30;90.66;102316.44;4913521;29;19915;-71
2022/12/27 13:16:44;;;;;;;;;;;;;;;8.07;92.21;102310.91;4915594;29;20314;-70
2022/12/27 13:19:29;;;;;;;;;;;;;;;7.84;92.88;102307.25;4931805;29;19953;-70
2022/12/27 13:22:17;;;;;;;;;;;;;;;7.52;94.05;102309.91;4931847;29;19919;-71
2022/12/27 13:24:42;;;;;;;;;;;;;;;7.44;95.12;102315.38;4908840;29;19998;-70
2022/12/27 13:27:07;;;;;;;;;;;;;;;7.23;95.67;102304.16;4932025;29;20147;-69
2022/12/27 13:29:41;;;;;;;;;;;;;;;7.00;96.20;102304.88;4932764;29;19942;-71
2022/12/27 13:32:16;;;;;;;;;;;;;;;7.03;97.46;102293.59;4932614;29;20358;-69
2022/12/27 13:34:57;;;;;;;;;;;;;;;6.86;97.02;102288.31;4930996;29;19942;-62
2022/12/27 13:37:22;;;;;;;;;;;;;;;6.75;97.66;102286.78;4929671;29;19918;-72
2022/12/27 13:39:59;;;;;;;;;;;;;;;6.76;98.35;102281.16;4931740;29;20589;-65
2022/12/27 13:42:40;;;;;;;;;;;;;;;6.69;98.51;102274.69;4925847;29;19925;-66
2022/12/27 13:45:21;;;;;;;;;;;;;;;6.64;99.50;102263.41;4932218;29;19915;-64
2022/12/27 13:47:55;;;;;;;;;;;;;;;6.55;99.29;102264.41;4929986;29;19919;-63
2022/12/27 13:50:40;;;;;;;;;;;;;;;6.52;99.58;102261.16;4930827;29;19915;-66
2022/12/27 13:53:19;;;;;;;;;;;;;;;6.49;100.00;102268.69;4931026;29;19922;-64
2022/12/27 13:55:47;;;;;;;;;;;;;;;6.53;100.00;102266.44;4930600;29;19965;-60
2022/12/27 13:58:33;;;;;;;;;;;;;;;6.61;100.00;102263.75;4931378;29;19918;-59
2022/12/27 14:01:13;;;;;;;;;;;;;;;6.57;100.00;102265.09;4928998;29;20017;-64
2022/12/27 14:03:39;;;;;;;;;;;;;;;6.63;100.00;102264.41;4912477;29;19945;-62
2022/12/27 14:06:25;;;;;;;;;;;;;;;6.68;100.00;102259.28;4923125;29;20366;-63
2022/12/27 14:09:05;;;;;;;;;;;;;;;6.72;100.00;102260.66;4930771;29;19915;-63
2022/12/27 14:11:49;;;;;;;;;;;;;;;6.67;100.00;102249.41;4931502;29;19939;-61
2022/12/27 14:14:16;;;;;;;;;;;;;;;6.64;100.00;102255.22;4931408;29;20318;-61
2022/12/27 14:17:01;;;;;;;;;;;;;;;6.68;100.00;102242.06;4929330;29;19922;-60
2022/12/27 14:19:32;;;;;;;;;;;;;;;6.59;100.00;102241.22;4930136;29;20350;-61
2022/12/27 14:21:59;;;;;;;;;;;;;;;6.69;100.00;102236.44;4923196;29;21288;-65
2022/12/27 14:24:43;;;;;;;;;;;;;;;6.59;100.00;102235.78;4915767;29;19915;-63
2022/12/27 14:27:27;;;;;;;;;;;;;;;6.63;100.00;102245.28;4930918;29;19911;-61
2022/12/27 14:30:07;;;;;;;;;;;;;;;6.62;100.00;102248.22;4929720;29;19918;-64